• Join FlightAware (Why Join?)
  • Login
  • US Flag 
12:40AM EDT


 

Airport Tracker/Info


-or-


 

Live Flight TrackerFlight Track Log ✈ RPA3228 ✈ 09-Jul-2013 ✈ KDCA - KBUF

Flight Track Log - Related Links

Times and Time Zones

All times are in EDT time to prevent confusion due to time zone crossing. See the RPA3228 flight status page for this flight to view local times or setup timezone preferences in your user account.

Time Position Orientation Groundspeed Altitude Reporting Facility
EDT Latitude Longitude Course Direction KTS MPH feet Rate Location/Type
10:26AM 38.8814 -77.0636 333° Northwest 157 181 1,900  Level Washington Center
10:27AM 38.9267 -77.1153 318° Northwest 228 262 3,800 2,580 Climbing Washington Center
10:28AM 39.0812 -77.1572 339° North  Level FlightAware Approximate
10:28AM 38.9842 -77.1778 320° Northwest 271 312 7,200  Level Washington Center
10:29AM 39.1617 -77.2005 330° Northwest  Level FlightAware Approximate
10:29AM 39.0397 -77.2458 316° Northwest 288 331 10,500  Level Washington Center
10:30AM 39.2447 -77.2396 337° Northwest  Level FlightAware Approximate
10:30AM 39.0467 -77.3422 275° West 294 338 11,000  Level Washington Center
10:31AM 39.3265 -77.2850 337° Northwest  Level FlightAware Approximate
10:31AM 39.0703 -77.4392 287° West 282 325 13,100  Level Washington Center
10:32AM 39.4201 -77.3411 333° Northwest  Level FlightAware Approximate
10:32AM 39.1317 -77.4994 323° Northwest 257 296 15,100  Level Washington Center
10:33AM 39.2258 -77.4886 North 256 295 17,000 1,740 Climbing Washington Center
10:34AM 39.3217 -77.4803 North 300 345 18,600 1,740 Climbing Washington Center
10:35AM 39.4219 -77.4722 North 331 381 20,500 2,160 Climbing Washington Center
10:36AM 39.5261 -77.4642 North 355 409 22,900 2,160 Climbing Washington Center
10:37AM 39.6278 -77.4589 North 368 423 24,900 1,020 Climbing New York Center
10:38AM 39.7303 -77.4550 North 395 455 25,000 540 Climbing New York Center
10:39AM 39.8325 -77.4539 360° North 376 433 26,000 480 Climbing New York Center
10:40AM 39.9331 -77.4797 349° North 371 427 26,000  Level New York Center
10:41AM 40.0331 -77.5192 343° North 366 421 26,000  Level New York Center
10:42AM 40.1353 -77.5564 344° North 372 428 26,000  Level New York Center
10:43AM 40.2350 -77.5986 342° North 372 428 26,000  Level New York Center
10:44AM 40.3328 -77.6383 343° North 372 428 26,000  Level New York Center
10:45AM 40.4222 -77.6744 343° North 378 435 26,000  Level New York Center
10:46AM 40.5222 -77.7144 343° North 373 429 26,000  Level New York Center
10:47AM 40.6239 -77.7550 343° North 373 429 26,000  Level New York Center
10:49AM 40.8642 -77.8539 343° North 381 438 26,000  Level Cleveland Center
10:50AM 40.9633 -77.8939 343° North 375 432 26,000  Level Cleveland Center
10:51AM 41.0536 -77.9314 343° North 370 426 26,000  Level Cleveland Center
10:52AM 41.1528 -77.9717 343° North 370 426 26,000  Level Cleveland Center
10:53AM 41.2517 -78.0144 342° North 370 426 26,000  Level Cleveland Center
10:54AM 41.3525 -78.0547 343° North 370 426 26,000  Level Cleveland Center
10:55AM 41.4514 -78.0953 343° North 370 426 26,000  Level Cleveland Center
10:56AM 41.5503 -78.1358 343° North 370 426 26,000  Level Cleveland Center
10:57AM 41.6533 -78.1792 343° North 370 426 26,000  Level Cleveland Center
10:58AM 41.7503 -78.2203 342° North 370 426 26,000  Level Cleveland Center
10:59AM 41.8533 -78.2639 343° North 370 426 26,000 -360 Level Cleveland Center
11:00AM 41.9519 -78.3047 343° North 370 426 25,300 -2,040 Descending Cleveland Center
11:01AM 42.0633 -78.3539 342° North 370 426 22,000 -3,000 Descending Cleveland Center
11:02AM 42.1581 -78.3956 342° North 364 419 19,300 -2,640 Descending Cleveland Center
11:03AM 42.2547 -78.4372 342° North 364 419 16,800 -2,580 Descending Cleveland Center
11:04AM 42.3492 -78.4761 343° North 364 419 14,200 -2,580 Descending Cleveland Center
11:05AM 42.4417 -78.5125 344° North 358 412 11,700 -1,800 Descending Cleveland Center
11:06AM 42.5258 -78.5519 341° North 342 394 10,600 -1,500 Descending Cleveland Center
11:07AM 42.6092 -78.5578 357° North 306 352 8,800 -1,740 Descending Cleveland Center
11:08AM 42.6903 -78.5522 North 290 334 7,200 -1,620 Descending Cleveland Center
11:09AM 42.7611 -78.5500 North 284 327 5,600 -1,620 Descending Cleveland Center
11:10AM 42.8383 -78.5503 360° North 277 319 4,000 -1,200 Descending Cleveland Center
11:11AM 42.9175 -78.5478 North 263 303 3,300 -840 Descending Cleveland Center
11:12AM 42.9800 -78.5486 359° North 238 274 2,400 -360 Descending Cleveland Center
11:14AM 43.0333 -78.6167 317° Northwest 172 198 2,300 -60 Descending Buffalo TRACON